sensor_id;sensor_type;location;lat;lon;timestamp;P1;durP1;ratioP1;P2;durP2;ratioP2
27857;SDS011;16852;51.446;6.528;2023-04-24T00:01:18;4.85;;;1.50;;
27857;SDS011;16852;51.446;6.528;2023-04-24T00:03:19;3.55;;;1.50;;
27857;SDS011;16852;51.446;6.528;2023-04-24T00:05:21;4.45;;;1.27;;
27857;SDS011;16852;51.446;6.528;2023-04-24T00:07:21;2.33;;;1.42;;
27857;SDS011;16852;51.446;6.528;2023-04-24T00:09:22;2.53;;;1.60;;
27857;SDS011;16852;51.446;6.528;2023-04-24T00:11:24;4.50;;;1.88;;
27857;SDS011;16852;51.446;6.528;2023-04-24T00:13:24;3.50;;;1.48;;
27857;SDS011;16852;51.446;6.528;2023-04-24T00:15:25;2.90;;;1.80;;
27857;SDS011;16852;51.446;6.528;2023-04-24T00:17:26;3.40;;;1.67;;
27857;SDS011;16852;51.446;6.528;2023-04-24T00:19:26;3.78;;;2.10;;
27857;SDS011;16852;51.446;6.528;2023-04-24T00:21:27;2.30;;;1.77;;
27857;SDS011;16852;51.446;6.528;2023-04-24T00:23:28;3.05;;;1.63;;
27857;SDS011;16852;51.446;6.528;2023-04-24T00:25:28;2.33;;;1.70;;
27857;SDS011;16852;51.446;6.528;2023-04-24T00:27:29;2.92;;;1.60;;
27857;SDS011;16852;51.446;6.528;2023-04-24T00:29:30;3.13;;;1.83;;
27857;SDS011;16852;51.446;6.528;2023-04-24T00:31:30;2.47;;;1.60;;
27857;SDS011;16852;51.446;6.528;2023-04-24T00:33:31;3.53;;;1.80;;
27857;SDS011;16852;51.446;6.528;2023-04-24T00:35:31;3.45;;;1.90;;
27857;SDS011;16852;51.446;6.528;2023-04-24T00:37:32;4.22;;;2.00;;
27857;SDS011;16852;51.446;6.528;2023-04-24T00:39:33;4.45;;;1.85;;
27857;SDS011;16852;51.446;6.528;2023-04-24T00:41:33;4.38;;;2.10;;
27857;SDS011;16852;51.446;6.528;2023-04-24T00:43:34;3.88;;;2.03;;
27857;SDS011;16852;51.446;6.528;2023-04-24T00:45:35;3.67;;;2.50;;
27857;SDS011;16852;51.446;6.528;2023-04-24T00:47:36;2.88;;;2.20;;
27857;SDS011;16852;51.446;6.528;2023-04-24T00:49:36;4.38;;;2.70;;
27857;SDS011;16852;51.446;6.528;2023-04-24T00:51:37;4.80;;;2.40;;
27857;SDS011;16852;51.446;6.528;2023-04-24T00:53:37;6.47;;;2.80;;
27857;SDS011;16852;51.446;6.528;2023-04-24T00:55:38;6.28;;;2.95;;
27857;SDS011;16852;51.446;6.528;2023-04-24T00:57:39;7.57;;;2.75;;
27857;SDS011;16852;51.446;6.528;2023-04-24T00:59:40;6.50;;;3.10;;
27857;SDS011;16852;51.446;6.528;2023-04-24T01:01:41;4.43;;;2.70;;
27857;SDS011;16852;51.446;6.528;2023-04-24T01:03:42;7.15;;;3.10;;
27857;SDS011;16852;51.446;6.528;2023-04-24T01:05:44;4.13;;;2.97;;
27857;SDS011;16852;51.446;6.528;2023-04-24T01:07:45;7.65;;;3.40;;
27857;SDS011;16852;51.446;6.528;2023-04-24T01:09:48;4.65;;;3.15;;
27857;SDS011;16852;51.446;6.528;2023-04-24T01:11:51;4.05;;;3.10;;
27857;SDS011;16852;51.446;6.528;2023-04-24T01:13:52;5.60;;;3.33;;
27857;SDS011;16852;51.446;6.528;2023-04-24T01:15:52;6.60;;;3.70;;
27857;SDS011;16852;51.446;6.528;2023-04-24T01:17:53;4.35;;;3.20;;
27857;SDS011;16852;51.446;6.528;2023-04-24T01:19:53;5.18;;;3.30;;
27857;SDS011;16852;51.446;6.528;2023-04-24T01:21:57;8.07;;;4.05;;
27857;SDS011;16852;51.446;6.528;2023-04-24T01:23:58;9.52;;;4.50;;
27857;SDS011;16852;51.446;6.528;2023-04-24T01:25:59;6.78;;;4.20;;
27857;SDS011;16852;51.446;6.528;2023-04-24T01:28:00;11.45;;;4.90;;
27857;SDS011;16852;51.446;6.528;2023-04-24T01:30:01;7.95;;;4.18;;
27857;SDS011;16852;51.446;6.528;2023-04-24T01:32:03;5.13;;;3.58;;
27857;SDS011;16852;51.446;6.528;2023-04-24T01:34:04;8.20;;;4.00;;
27857;SDS011;16852;51.446;6.528;2023-04-24T01:36:06;6.50;;;3.75;;
27857;SDS011;16852;51.446;6.528;2023-04-24T01:38:07;6.50;;;3.85;;
27857;SDS011;16852;51.446;6.528;2023-04-24T01:40:08;5.60;;;3.88;;
27857;SDS011;16852;51.446;6.528;2023-04-24T01:42:09;5.88;;;4.13;;
27857;SDS011;16852;51.446;6.528;2023-04-24T01:44:09;6.47;;;4.53;;
27857;SDS011;16852;51.446;6.528;2023-04-24T01:46:10;7.28;;;4.30;;
27857;SDS011;16852;51.446;6.528;2023-04-24T01:48:11;6.45;;;3.75;;
27857;SDS011;16852;51.446;6.528;2023-04-24T01:50:13;9.13;;;4.27;;
27857;SDS011;16852;51.446;6.528;2023-04-24T01:52:13;5.63;;;4.03;;
27857;SDS011;16852;51.446;6.528;2023-04-24T01:54:14;8.20;;;4.10;;
27857;SDS011;16852;51.446;6.528;2023-04-24T01:56:14;7.28;;;4.30;;
27857;SDS011;16852;51.446;6.528;2023-04-24T01:58:15;7.38;;;4.30;;
27857;SDS011;16852;51.446;6.528;2023-04-24T02:00:16;6.32;;;3.72;;
27857;SDS011;16852;51.446;6.528;2023-04-24T02:02:16;8.48;;;4.60;;
27857;SDS011;16852;51.446;6.528;2023-04-24T02:04:17;6.35;;;4.40;;
27857;SDS011;16852;51.446;6.528;2023-04-24T02:06:18;5.93;;;4.32;;
27857;SDS011;16852;51.446;6.528;2023-04-24T02:08:18;12.65;;;5.78;;
27857;SDS011;16852;51.446;6.528;2023-04-24T02:10:19;8.18;;;5.15;;
27857;SDS011;16852;51.446;6.528;2023-04-24T02:12:19;7.20;;;4.68;;
27857;SDS011;16852;51.446;6.528;2023-04-24T02:14:20;13.50;;;5.80;;
27857;SDS011;16852;51.446;6.528;2023-04-24T02:16:20;7.22;;;5.03;;
27857;SDS011;16852;51.446;6.528;2023-04-24T02:18:21;10.07;;;5.45;;
27857;SDS011;16852;51.446;6.528;2023-04-24T02:20:22;10.57;;;6.03;;
27857;SDS011;16852;51.446;6.528;2023-04-24T02:22:23;11.23;;;6.28;;
27857;SDS011;16852;51.446;6.528;2023-04-24T02:24:24;12.45;;;7.10;;
27857;SDS011;16852;51.446;6.528;2023-04-24T02:26:24;8.45;;;6.60;;
27857;SDS011;16852;51.446;6.528;2023-04-24T02:28:25;14.45;;;7.22;;
27857;SDS011;16852;51.446;6.528;2023-04-24T02:30:25;10.70;;;6.15;;
27857;SDS011;16852;51.446;6.528;2023-04-24T02:32:26;13.30;;;6.75;;
27857;SDS011;16852;51.446;6.528;2023-04-24T02:34:27;12.07;;;6.43;;
27857;SDS011;16852;51.446;6.528;2023-04-24T02:36:27;15.32;;;6.88;;
27857;SDS011;16852;51.446;6.528;2023-04-24T02:38:28;13.82;;;7.63;;
27857;SDS011;16852;51.446;6.528;2023-04-24T02:40:29;9.50;;;6.60;;
27857;SDS011;16852;51.446;6.528;2023-04-24T02:42:30;12.27;;;7.53;;
27857;SDS011;16852;51.446;6.528;2023-04-24T02:44:30;10.30;;;7.05;;
27857;SDS011;16852;51.446;6.528;2023-04-24T02:46:31;13.60;;;6.90;;
27857;SDS011;16852;51.446;6.528;2023-04-24T02:48:31;13.43;;;7.57;;
27857;SDS011;16852;51.446;6.528;2023-04-24T02:50:32;9.93;;;6.82;;
27857;SDS011;16852;51.446;6.528;2023-04-24T02:52:33;15.93;;;7.75;;
27857;SDS011;16852;51.446;6.528;2023-04-24T02:54:34;15.30;;;7.43;;
27857;SDS011;16852;51.446;6.528;2023-04-24T02:56:34;15.52;;;8.30;;
27857;SDS011;16852;51.446;6.528;2023-04-24T02:58:35;12.32;;;7.00;;
27857;SDS011;16852;51.446;6.528;2023-04-24T03:00:36;14.23;;;7.68;;
27857;SDS011;16852;51.446;6.528;2023-04-24T03:02:36;14.50;;;7.75;;
27857;SDS011;16852;51.446;6.528;2023-04-24T03:04:37;15.15;;;7.75;;
27857;SDS011;16852;51.446;6.528;2023-04-24T03:06:37;16.17;;;8.32;;
27857;SDS011;16852;51.446;6.528;2023-04-24T03:08:38;10.57;;;7.25;;
27857;SDS011;16852;51.446;6.528;2023-04-24T03:10:39;16.00;;;8.82;;
27857;SDS011;16852;51.446;6.528;2023-04-24T03:12:39;14.00;;;8.00;;
27857;SDS011;16852;51.446;6.528;2023-04-24T03:14:40;15.20;;;8.68;;
27857;SDS011;16852;51.446;6.528;2023-04-24T03:16:41;15.32;;;7.50;;
27857;SDS011;16852;51.446;6.528;2023-04-24T03:18:41;14.20;;;7.78;;
27857;SDS011;16852;51.446;6.528;2023-04-24T03:20:42;14.93;;;8.25;;
27857;SDS011;16852;51.446;6.528;2023-04-24T03:22:45;15.25;;;8.95;;
27857;SDS011;16852;51.446;6.528;2023-04-24T03:24:45;12.40;;;7.75;;
27857;SDS011;16852;51.446;6.528;2023-04-24T03:26:46;14.15;;;7.97;;
27857;SDS011;16852;51.446;6.528;2023-04-24T03:28:46;13.38;;;8.45;;
27857;SDS011;16852;51.446;6.528;2023-04-24T03:30:47;12.75;;;7.55;;
27857;SDS011;16852;51.446;6.528;2023-04-24T03:32:48;14.93;;;8.15;;
27857;SDS011;16852;51.446;6.528;2023-04-24T03:34:48;18.42;;;8.38;;
27857;SDS011;16852;51.446;6.528;2023-04-24T03:36:49;17.33;;;8.40;;
27857;SDS011;16852;51.446;6.528;2023-04-24T03:38:50;12.45;;;7.65;;
27857;SDS011;16852;51.446;6.528;2023-04-24T03:40:51;14.57;;;7.88;;
27857;SDS011;16852;51.446;6.528;2023-04-24T03:42:51;15.27;;;7.55;;
27857;SDS011;16852;51.446;6.528;2023-04-24T03:44:52;14.98;;;7.80;;
27857;SDS011;16852;51.446;6.528;2023-04-24T03:46:53;14.85;;;7.35;;
27857;SDS011;16852;51.446;6.528;2023-04-24T03:48:53;10.57;;;7.57;;
27857;SDS011;16852;51.446;6.528;2023-04-24T03:50:54;12.27;;;7.82;;
27857;SDS011;16852;51.446;6.528;2023-04-24T03:52:54;12.45;;;6.75;;
27857;SDS011;16852;51.446;6.528;2023-04-24T03:54:55;13.18;;;6.90;;
27857;SDS011;16852;51.446;6.528;2023-04-24T03:56:56;14.80;;;7.97;;
27857;SDS011;16852;51.446;6.528;2023-04-24T03:58:56;13.48;;;8.07;;
27857;SDS011;16852;51.446;6.528;2023-04-24T04:00:57;12.20;;;7.25;;
27857;SDS011;16852;51.446;6.528;2023-04-24T04:02:58;11.55;;;7.20;;
27857;SDS011;16852;51.446;6.528;2023-04-24T04:04:59;11.57;;;6.80;;
27857;SDS011;16852;51.446;6.528;2023-04-24T04:06:59;12.85;;;7.68;;
27857;SDS011;16852;51.446;6.528;2023-04-24T04:09:03;15.73;;;7.30;;
27857;SDS011;16852;51.446;6.528;2023-04-24T04:11:03;11.73;;;7.03;;
27857;SDS011;16852;51.446;6.528;2023-04-24T04:13:04;11.90;;;6.90;;
27857;SDS011;16852;51.446;6.528;2023-04-24T04:15:06;10.38;;;6.18;;
27857;SDS011;16852;51.446;6.528;2023-04-24T04:17:07;11.88;;;6.88;;
27857;SDS011;16852;51.446;6.528;2023-04-24T04:19:07;11.40;;;6.95;;
27857;SDS011;16852;51.446;6.528;2023-04-24T04:21:08;14.60;;;7.38;;
27857;SDS011;16852;51.446;6.528;2023-04-24T04:23:09;12.02;;;6.68;;
27857;SDS011;16852;51.446;6.528;2023-04-24T04:25:09;12.30;;;6.75;;
27857;SDS011;16852;51.446;6.528;2023-04-24T04:27:11;9.23;;;5.97;;
27857;SDS011;16852;51.446;6.528;2023-04-24T04:29:13;8.93;;;6.38;;
27857;SDS011;16852;51.446;6.528;2023-04-24T04:31:13;11.55;;;7.07;;
27857;SDS011;16852;51.446;6.528;2023-04-24T04:33:14;11.10;;;6.13;;
27857;SDS011;16852;51.446;6.528;2023-04-24T04:35:15;15.50;;;6.97;;
27857;SDS011;16852;51.446;6.528;2023-04-24T04:37:15;10.18;;;6.05;;
27857;SDS011;16852;51.446;6.528;2023-04-24T04:39:16;9.13;;;6.18;;
27857;SDS011;16852;51.446;6.528;2023-04-24T04:41:18;13.68;;;7.20;;
27857;SDS011;16852;51.446;6.528;2023-04-24T04:43:20;10.50;;;6.65;;
27857;SDS011;16852;51.446;6.528;2023-04-24T04:45:20;11.63;;;6.25;;
27857;SDS011;16852;51.446;6.528;2023-04-24T04:47:21;10.70;;;5.68;;
27857;SDS011;16852;51.446;6.528;2023-04-24T04:49:24;10.98;;;6.00;;
27857;SDS011;16852;51.446;6.528;2023-04-24T04:51:28;7.25;;;4.80;;
27857;SDS011;16852;51.446;6.528;2023-04-24T04:53:29;8.90;;;5.18;;
27857;SDS011;16852;51.446;6.528;2023-04-24T04:55:30;7.10;;;4.68;;
27857;SDS011;16852;51.446;6.528;2023-04-24T04:57:30;8.65;;;5.53;;
27857;SDS011;16852;51.446;6.528;2023-04-24T04:59:31;11.20;;;5.65;;
27857;SDS011;16852;51.446;6.528;2023-04-24T05:01:32;8.02;;;5.45;;
27857;SDS011;16852;51.446;6.528;2023-04-24T05:03:32;7.40;;;5.30;;
27857;SDS011;16852;51.446;6.528;2023-04-24T05:05:33;12.23;;;6.18;;
27857;SDS011;16852;51.446;6.528;2023-04-24T05:07:33;7.90;;;5.18;;
27857;SDS011;16852;51.446;6.528;2023-04-24T05:09:34;8.93;;;5.00;;
27857;SDS011;16852;51.446;6.528;2023-04-24T05:11:35;8.80;;;5.13;;
27857;SDS011;16852;51.446;6.528;2023-04-24T05:13:35;6.78;;;5.03;;
27857;SDS011;16852;51.446;6.528;2023-04-24T05:15:36;8.40;;;4.97;;
27857;SDS011;16852;51.446;6.528;2023-04-24T05:17:37;7.97;;;4.95;;
27857;SDS011;16852;51.446;6.528;2023-04-24T05:19:39;6.82;;;4.78;;
27857;SDS011;16852;51.446;6.528;2023-04-24T05:21:40;7.43;;;4.90;;
27857;SDS011;16852;51.446;6.528;2023-04-24T05:23:41;8.00;;;5.13;;
27857;SDS011;16852;51.446;6.528;2023-04-24T05:25:41;9.07;;;5.20;;
27857;SDS011;16852;51.446;6.528;2023-04-24T05:27:42;8.80;;;4.72;;
27857;SDS011;16852;51.446;6.528;2023-04-24T05:29:44;10.63;;;5.60;;
27857;SDS011;16852;51.446;6.528;2023-04-24T05:31:45;7.88;;;5.38;;
27857;SDS011;16852;51.446;6.528;2023-04-24T05:33:45;7.55;;;4.90;;
27857;SDS011;16852;51.446;6.528;2023-04-24T05:35:46;6.72;;;4.75;;
27857;SDS011;16852;51.446;6.528;2023-04-24T05:37:47;9.13;;;5.00;;
27857;SDS011;16852;51.446;6.528;2023-04-24T05:39:47;9.48;;;5.57;;
27857;SDS011;16852;51.446;6.528;2023-04-24T05:41:48;7.50;;;5.00;;
27857;SDS011;16852;51.446;6.528;2023-04-24T05:43:48;9.18;;;5.55;;
27857;SDS011;16852;51.446;6.528;2023-04-24T05:45:49;9.68;;;5.22;;
27857;SDS011;16852;51.446;6.528;2023-04-24T05:47:50;11.77;;;5.00;;
27857;SDS011;16852;51.446;6.528;2023-04-24T05:49:52;8.00;;;4.97;;
27857;SDS011;16852;51.446;6.528;2023-04-24T05:51:53;8.60;;;5.78;;
27857;SDS011;16852;51.446;6.528;2023-04-24T05:53:54;9.23;;;5.68;;
27857;SDS011;16852;51.446;6.528;2023-04-24T05:55:54;8.18;;;5.40;;
27857;SDS011;16852;51.446;6.528;2023-04-24T05:57:55;8.85;;;5.10;;
27857;SDS011;16852;51.446;6.528;2023-04-24T05:59:56;10.30;;;4.95;;
27857;SDS011;16852;51.446;6.528;2023-04-24T06:01:56;7.20;;;5.18;;
27857;SDS011;16852;51.446;6.528;2023-04-24T06:03:57;5.88;;;4.53;;
27857;SDS011;16852;51.446;6.528;2023-04-24T06:05:58;9.32;;;5.22;;
27857;SDS011;16852;51.446;6.528;2023-04-24T06:07:58;7.55;;;5.22;;
27857;SDS011;16852;51.446;6.528;2023-04-24T06:09:59;8.43;;;5.63;;
27857;SDS011;16852;51.446;6.528;2023-04-24T06:12:00;8.02;;;5.00;;
27857;SDS011;16852;51.446;6.528;2023-04-24T06:14:00;8.88;;;5.47;;
27857;SDS011;16852;51.446;6.528;2023-04-24T06:16:01;9.05;;;4.85;;
27857;SDS011;16852;51.446;6.528;2023-04-24T06:18:02;7.47;;;5.10;;
27857;SDS011;16852;51.446;6.528;2023-04-24T06:20:03;8.38;;;5.10;;
27857;SDS011;16852;51.446;6.528;2023-04-24T06:22:05;8.00;;;5.05;;
27857;SDS011;16852;51.446;6.528;2023-04-24T06:24:06;7.80;;;5.45;;
27857;SDS011;16852;51.446;6.528;2023-04-24T06:26:07;7.35;;;4.50;;
27857;SDS011;16852;51.446;6.528;2023-04-24T06:28:07;6.65;;;5.10;;
27857;SDS011;16852;51.446;6.528;2023-04-24T06:30:08;7.70;;;4.57;;
27857;SDS011;16852;51.446;6.528;2023-04-24T06:32:09;8.23;;;4.55;;
27857;SDS011;16852;51.446;6.528;2023-04-24T06:34:09;7.85;;;4.45;;
27857;SDS011;16852;51.446;6.528;2023-04-24T06:36:10;5.55;;;4.10;;
27857;SDS011;16852;51.446;6.528;2023-04-24T06:38:12;5.30;;;3.97;;
27857;SDS011;16852;51.446;6.528;2023-04-24T06:40:13;4.55;;;3.67;;
27857;SDS011;16852;51.446;6.528;2023-04-24T06:42:13;7.55;;;3.88;;
27857;SDS011;16852;51.446;6.528;2023-04-24T06:44:14;5.65;;;3.60;;
27857;SDS011;16852;51.446;6.528;2023-04-24T06:46:15;4.20;;;3.63;;
27857;SDS011;16852;51.446;6.528;2023-04-24T06:48:15;4.63;;;3.53;;
27857;SDS011;16852;51.446;6.528;2023-04-24T06:50:17;5.20;;;3.22;;
27857;SDS011;16852;51.446;6.528;2023-04-24T06:52:18;5.78;;;3.40;;
27857;SDS011;16852;51.446;6.528;2023-04-24T06:54:18;3.67;;;2.80;;
27857;SDS011;16852;51.446;6.528;2023-04-24T06:56:19;5.20;;;3.20;;
27857;SDS011;16852;51.446;6.528;2023-04-24T06:58:20;4.72;;;2.60;;
27857;SDS011;16852;51.446;6.528;2023-04-24T07:00:21;3.95;;;2.67;;
27857;SDS011;16852;51.446;6.528;2023-04-24T07:02:24;2.90;;;1.95;;
27857;SDS011;16852;51.446;6.528;2023-04-24T07:04:25;2.50;;;1.80;;
27857;SDS011;16852;51.446;6.528;2023-04-24T07:06:25;3.05;;;1.80;;
27857;SDS011;16852;51.446;6.528;2023-04-24T07:08:27;1.92;;;1.70;;
27857;SDS011;16852;51.446;6.528;2023-04-24T07:10:30;3.58;;;1.40;;
27857;SDS011;16852;51.446;6.528;2023-04-24T07:12:30;2.45;;;1.45;;
27857;SDS011;16852;51.446;6.528;2023-04-24T07:14:32;1.98;;;1.25;;
27857;SDS011;16852;51.446;6.528;2023-04-24T07:16:32;1.95;;;1.27;;
27857;SDS011;16852;51.446;6.528;2023-04-24T07:18:33;1.23;;;1.00;;
27857;SDS011;16852;51.446;6.528;2023-04-24T07:20:34;2.13;;;1.25;;
27857;SDS011;16852;51.446;6.528;2023-04-24T07:22:34;1.85;;;1.00;;
27857;SDS011;16852;51.446;6.528;2023-04-24T07:24:35;1.30;;;0.90;;
27857;SDS011;16852;51.446;6.528;2023-04-24T07:26:36;3.13;;;1.33;;
27857;SDS011;16852;51.446;6.528;2023-04-24T07:28:37;2.70;;;1.00;;
27857;SDS011;16852;51.446;6.528;2023-04-24T07:30:38;1.15;;;0.90;;
27857;SDS011;16852;51.446;6.528;2023-04-24T07:32:38;3.20;;;1.13;;
27857;SDS011;16852;51.446;6.528;2023-04-24T07:34:39;1.55;;;0.90;;
27857;SDS011;16852;51.446;6.528;2023-04-24T07:36:40;2.47;;;1.20;;
27857;SDS011;16852;51.446;6.528;2023-04-24T07:38:41;1.42;;;0.90;;
27857;SDS011;16852;51.446;6.528;2023-04-24T07:40:42;1.33;;;1.00;;
27857;SDS011;16852;51.446;6.528;2023-04-24T07:42:43;0.60;;;0.60;;
27857;SDS011;16852;51.446;6.528;2023-04-24T07:44:43;0.93;;;0.77;;
27857;SDS011;16852;51.446;6.528;2023-04-24T07:48:47;2.15;;;0.70;;
27857;SDS011;16852;51.446;6.528;2023-04-24T07:50:48;1.20;;;0.52;;
27857;SDS011;16852;51.446;6.528;2023-04-24T07:52:48;0.80;;;0.60;;
27857;SDS011;16852;51.446;6.528;2023-04-24T07:54:49;1.65;;;0.98;;
27857;SDS011;16852;51.446;6.528;2023-04-24T07:56:58;1.38;;;0.65;;
27857;SDS011;16852;51.446;6.528;2023-04-24T07:58:59;1.23;;;0.52;;
27857;SDS011;16852;51.446;6.528;2023-04-24T08:01:01;3.25;;;0.73;;
27857;SDS011;16852;51.446;6.528;2023-04-24T08:03:01;2.97;;;0.80;;
27857;SDS011;16852;51.446;6.528;2023-04-24T08:05:02;0.70;;;0.60;;
27857;SDS011;16852;51.446;6.528;2023-04-24T08:07:03;2.60;;;0.70;;
27857;SDS011;16852;51.446;6.528;2023-04-24T08:09:04;0.60;;;0.60;;
27857;SDS011;16852;51.446;6.528;2023-04-24T08:11:04;1.63;;;0.55;;
27857;SDS011;16852;51.446;6.528;2023-04-24T08:13:05;1.23;;;0.70;;
27857;SDS011;16852;51.446;6.528;2023-04-24T08:15:06;0.50;;;0.50;;
27857;SDS011;16852;51.446;6.528;2023-04-24T08:17:06;1.35;;;0.63;;
27857;SDS011;16852;51.446;6.528;2023-04-24T08:19:07;0.95;;;0.43;;
27857;SDS011;16852;51.446;6.528;2023-04-24T08:21:08;2.53;;;0.80;;
27857;SDS011;16852;51.446;6.528;2023-04-24T08:23:09;0.57;;;0.57;;
27857;SDS011;16852;51.446;6.528;2023-04-24T08:25:10;2.15;;;0.68;;
27857;SDS011;16852;51.446;6.528;2023-04-24T08:27:10;3.00;;;0.50;;
27857;SDS011;16852;51.446;6.528;2023-04-24T08:29:11;1.52;;;0.40;;
27857;SDS011;16852;51.446;6.528;2023-04-24T08:31:12;0.57;;;0.40;;
27857;SDS011;16852;51.446;6.528;2023-04-24T08:33:13;0.90;;;0.60;;
27857;SDS011;16852;51.446;6.528;2023-04-24T08:35:14;2.27;;;0.60;;
27857;SDS011;16852;51.446;6.528;2023-04-24T08:37:15;0.70;;;0.43;;
27857;SDS011;16852;51.446;6.528;2023-04-24T08:39:15;2.35;;;0.85;;
27857;SDS011;16852;51.446;6.528;2023-04-24T08:41:18;1.92;;;0.75;;
27857;SDS011;16852;51.446;6.528;2023-04-24T08:43:20;2.70;;;1.50;;
27857;SDS011;16852;51.446;6.528;2023-04-24T08:45:22;5.32;;;3.22;;
27857;SDS011;16852;51.446;6.528;2023-04-24T08:47:23;7.68;;;4.47;;
27857;SDS011;16852;51.446;6.528;2023-04-24T08:49:26;8.10;;;4.50;;
27857;SDS011;16852;51.446;6.528;2023-04-24T08:51:28;8.98;;;4.85;;
27857;SDS011;16852;51.446;6.528;2023-04-24T08:53:30;11.73;;;5.13;;
27857;SDS011;16852;51.446;6.528;2023-04-24T08:55:32;8.10;;;5.07;;
27857;SDS011;16852;51.446;6.528;2023-04-24T08:57:34;10.02;;;5.07;;
27857;SDS011;16852;51.446;6.528;2023-04-24T08:59:36;8.15;;;5.03;;
27857;SDS011;16852;51.446;6.528;2023-04-24T09:01:38;6.33;;;4.73;;
27857;SDS011;16852;51.446;6.528;2023-04-24T09:03:40;6.85;;;4.45;;
27857;SDS011;16852;51.446;6.528;2023-04-24T09:05:41;7.45;;;4.68;;
27857;SDS011;16852;51.446;6.528;2023-04-24T09:07:47;8.52;;;4.95;;
27857;SDS011;16852;51.446;6.528;2023-04-24T09:09:53;12.80;;;5.47;;
27857;SDS011;16852;51.446;6.528;2023-04-24T09:11:54;9.68;;;5.68;;
27857;SDS011;16852;51.446;6.528;2023-04-24T09:13:56;9.55;;;5.43;;
27857;SDS011;16852;51.446;6.528;2023-04-24T09:15:57;9.98;;;5.57;;
27857;SDS011;16852;51.446;6.528;2023-04-24T09:18:00;11.32;;;5.30;;
27857;SDS011;16852;51.446;6.528;2023-04-24T09:20:01;12.52;;;5.88;;
27857;SDS011;16852;51.446;6.528;2023-04-24T09:22:05;10.77;;;5.63;;
27857;SDS011;16852;51.446;6.528;2023-04-24T09:24:08;9.60;;;5.53;;
27857;SDS011;16852;51.446;6.528;2023-04-24T09:26:17;13.75;;;6.28;;
27857;SDS011;16852;51.446;6.528;2023-04-24T09:30:24;9.70;;;5.63;;
27857;SDS011;16852;51.446;6.528;2023-04-24T09:32:25;11.23;;;5.45;;
27857;SDS011;16852;51.446;6.528;2023-04-24T09:34:27;15.95;;;5.95;;
27857;SDS011;16852;51.446;6.528;2023-04-24T09:36:28;9.90;;;4.75;;
27857;SDS011;16852;51.446;6.528;2023-04-24T09:38:37;14.18;;;5.78;;
27857;SDS011;16852;51.446;6.528;2023-04-24T09:40:38;13.57;;;5.85;;
27857;SDS011;16852;51.446;6.528;2023-04-24T09:42:43;9.18;;;4.60;;
27857;SDS011;16852;51.446;6.528;2023-04-24T09:44:53;10.63;;;4.90;;
27857;SDS011;16852;51.446;6.528;2023-04-24T09:46:54;13.30;;;5.00;;
27857;SDS011;16852;51.446;6.528;2023-04-24T09:48:56;10.20;;;4.75;;
27857;SDS011;16852;51.446;6.528;2023-04-24T09:50:57;10.00;;;4.25;;
27857;SDS011;16852;51.446;6.528;2023-04-24T09:52:59;12.35;;;4.03;;
27857;SDS011;16852;51.446;6.528;2023-04-24T09:55:03;13.07;;;4.28;;
27857;SDS011;16852;51.446;6.528;2023-04-24T09:57:11;7.78;;;3.90;;
27857;SDS011;16852;51.446;6.528;2023-04-24T09:59:15;12.98;;;3.72;;
27857;SDS011;16852;51.446;6.528;2023-04-24T10:01:16;18.75;;;4.68;;
27857;SDS011;16852;51.446;6.528;2023-04-24T10:03:32;10.43;;;3.95;;
27857;SDS011;16852;51.446;6.528;2023-04-24T10:05:37;10.57;;;3.97;;
27857;SDS011;16852;51.446;6.528;2023-04-24T10:07:38;11.30;;;4.13;;
27857;SDS011;16852;51.446;6.528;2023-04-24T10:09:39;10.00;;;4.50;;
27857;SDS011;16852;51.446;6.528;2023-04-24T10:11:41;14.77;;;5.00;;
27857;SDS011;16852;51.446;6.528;2023-04-24T10:13:45;15.52;;;4.43;;
27857;SDS011;16852;51.446;6.528;2023-04-24T10:15:46;10.77;;;3.63;;
27857;SDS011;16852;51.446;6.528;2023-04-24T10:17:48;12.23;;;4.50;;
27857;SDS011;16852;51.446;6.528;2023-04-24T10:19:53;11.05;;;3.83;;
27857;SDS011;16852;51.446;6.528;2023-04-24T10:21:54;12.70;;;4.78;;
27857;SDS011;16852;51.446;6.528;2023-04-24T10:23:57;13.50;;;4.18;;
27857;SDS011;16852;51.446;6.528;2023-04-24T10:28:01;12.77;;;4.85;;
27857;SDS011;16852;51.446;6.528;2023-04-24T10:30:02;12.17;;;3.87;;
27857;SDS011;16852;51.446;6.528;2023-04-24T10:32:03;11.63;;;4.25;;
27857;SDS011;16852;51.446;6.528;2023-04-24T10:34:06;13.68;;;3.90;;
27857;SDS011;16852;51.446;6.528;2023-04-24T10:36:11;14.53;;;4.57;;
27857;SDS011;16852;51.446;6.528;2023-04-24T10:38:14;15.15;;;3.55;;
27857;SDS011;16852;51.446;6.528;2023-04-24T10:40:26;19.88;;;4.55;;
27857;SDS011;16852;51.446;6.528;2023-04-24T10:42:32;16.02;;;3.85;;
27857;SDS011;16852;51.446;6.528;2023-04-24T10:44:35;16.10;;;4.70;;
27857;SDS011;16852;51.446;6.528;2023-04-24T10:46:37;12.82;;;4.28;;
27857;SDS011;16852;51.446;6.528;2023-04-24T10:49:07;14.02;;;4.60;;
27857;SDS011;16852;51.446;6.528;2023-04-24T10:51:10;12.95;;;4.30;;
27857;SDS011;16852;51.446;6.528;2023-04-24T10:53:17;15.23;;;4.47;;
27857;SDS011;16852;51.446;6.528;2023-04-24T10:58:01;11.90;;;4.95;;
27857;SDS011;16852;51.446;6.528;2023-04-24T11:00:15;17.23;;;4.90;;
27857;SDS011;16852;51.446;6.528;2023-04-24T11:02:23;13.45;;;4.97;;
27857;SDS011;16852;51.446;6.528;2023-04-24T11:04:36;8.90;;;4.00;;
27857;SDS011;16852;51.446;6.528;2023-04-24T11:06:37;14.52;;;3.95;;
27857;SDS011;16852;51.446;6.528;2023-04-24T11:08:38;12.30;;;3.72;;
27857;SDS011;16852;51.446;6.528;2023-04-24T11:10:46;14.50;;;3.30;;
27857;SDS011;16852;51.446;6.528;2023-04-24T11:12:54;10.15;;;3.35;;
27857;SDS011;16852;51.446;6.528;2023-04-24T11:16:59;11.63;;;3.45;;
27857;SDS011;16852;51.446;6.528;2023-04-24T11:19:07;14.50;;;3.08;;
27857;SDS011;16852;51.446;6.528;2023-04-24T11:21:11;10.52;;;2.92;;
27857;SDS011;16852;51.446;6.528;2023-04-24T11:23:13;11.60;;;3.08;;
27857;SDS011;16852;51.446;6.528;2023-04-24T11:25:14;11.18;;;3.90;;
27857;SDS011;16852;51.446;6.528;2023-04-24T11:27:17;10.35;;;3.83;;
27857;SDS011;16852;51.446;6.528;2023-04-24T11:29:20;12.13;;;3.45;;
27857;SDS011;16852;51.446;6.528;2023-04-24T11:31:40;9.20;;;2.97;;
27857;SDS011;16852;51.446;6.528;2023-04-24T11:33:48;12.88;;;3.33;;
27857;SDS011;16852;51.446;6.528;2023-04-24T11:35:49;14.05;;;3.83;;
27857;SDS011;16852;51.446;6.528;2023-04-24T11:37:52;11.23;;;3.30;;
27857;SDS011;16852;51.446;6.528;2023-04-24T11:39:54;10.50;;;3.55;;
27857;SDS011;16852;51.446;6.528;2023-04-24T11:42:01;11.45;;;3.53;;
27857;SDS011;16852;51.446;6.528;2023-04-24T11:44:05;10.63;;;3.90;;
27857;SDS011;16852;51.446;6.528;2023-04-24T11:46:07;10.30;;;3.40;;
27857;SDS011;16852;51.446;6.528;2023-04-24T11:48:07;12.07;;;3.67;;
27857;SDS011;16852;51.446;6.528;2023-04-24T11:50:12;7.10;;;3.20;;
27857;SDS011;16852;51.446;6.528;2023-04-24T11:52:15;10.20;;;3.58;;
27857;SDS011;16852;51.446;6.528;2023-04-24T11:54:16;6.60;;;2.70;;
27857;SDS011;16852;51.446;6.528;2023-04-24T11:58:21;8.67;;;2.73;;
27857;SDS011;16852;51.446;6.528;2023-04-24T12:00:27;8.68;;;2.75;;
27857;SDS011;16852;51.446;6.528;2023-04-24T12:02:33;10.63;;;2.55;;
27857;SDS011;16852;51.446;6.528;2023-04-24T12:04:40;6.55;;;2.60;;
27857;SDS011;16852;51.446;6.528;2023-04-24T12:09:01;7.82;;;2.10;;
27857;SDS011;16852;51.446;6.528;2023-04-24T12:11:03;13.77;;;3.00;;
27857;SDS011;16852;51.446;6.528;2023-04-24T12:13:05;6.95;;;2.33;;
27857;SDS011;16852;51.446;6.528;2023-04-24T12:15:09;5.70;;;1.83;;
27857;SDS011;16852;51.446;6.528;2023-04-24T12:17:10;5.10;;;1.67;;
27857;SDS011;16852;51.446;6.528;2023-04-24T12:19:10;5.25;;;1.75;;
27857;SDS011;16852;51.446;6.528;2023-04-24T12:21:29;6.85;;;1.83;;
27857;SDS011;16852;51.446;6.528;2023-04-24T12:23:34;5.72;;;2.00;;
27857;SDS011;16852;51.446;6.528;2023-04-24T12:25:35;5.82;;;1.90;;